• Join FlightAware (Why Join?)
  • Login
  • US Flag 
11:09PM EST


 

Airport Tracker/Info


-or-


 

Live Flight TrackerFlight Track Log ✈ SWA259 ✈ 26-Jan-2014 ✈ KLAS - KOAK

Flight Track Log - Related Links

Times and Time Zones

All times are in EST time to prevent confusion due to time zone crossing. See the SWA259 flight status page for this flight to view local times or setup timezone preferences in your user account.

Time Position Orientation Groundspeed Altitude Reporting Facility
EST Latitude Longitude Course Direction KTS MPH feet Rate Location/Type
08:46PM 36.0619 -115.2525 256° West 231 266 5,600  Level Los Angeles Center
08:47PM 36.0261 -115.2739 206° Southwest 259 298 6,600 1,260 Climbing Los Angeles Center
08:47PM 35.9947 -115.2906 203° Southwest 276 318 6,900 1,440 Climbing Los Angeles Center
08:48PM 35.9539 -115.3231 213° Southwest 276 318 8,100 2,100 Climbing Los Angeles Center
08:49PM 35.8956 -115.3939 225° Southwest 293 337 10,500 2,340 Climbing Los Angeles Center
08:50PM 35.8889 -115.5094 266° West 338 389 13,000 2,460 Climbing Los Angeles Center
08:51PM 35.8906 -115.6386 271° West 350 403 15,700 2,280 Climbing Los Angeles Center
08:52PM 35.8919 -115.7656 271° West 370 426 17,800 2,280 Climbing Los Angeles Center
08:53PM 35.8958 -115.9069 272° West 383 441 20,500 1,980 Climbing Los Angeles Center
08:54PM 35.9411 -116.0222 296° West 397 457 22,000 1,560 Climbing Los Angeles Center
08:55PM 36.0322 -116.1261 317° Northwest 415 478 23,800 1,740 Climbing Los Angeles Center
08:56PM 36.1156 -116.2233 317° Northwest 420 483 25,600 1,500 Climbing Los Angeles Center
08:57PM 36.2028 -116.3231 317° Northwest 425 489 26,900 1,380 Climbing Los Angeles Center
08:58PM 36.2917 -116.4275 317° Northwest 435 501 28,500 1,620 Climbing Los Angeles Center
08:59PM 36.3803 -116.5303 317° Northwest 437 503 30,300 1,680 Climbing Los Angeles Center
09:00PM 36.4850 -116.6522 317° Northwest 433 498 32,000 1,320 Climbing Los Angeles Center
09:01PM 36.5561 -116.7706 307° West 430 495 33,100 960 Climbing Los Angeles Center
09:02PM 36.6014 -116.8961 294° West 413 475 34,000 420 Climbing Los Angeles Center
09:03PM 36.6483 -117.0269 294° West 414 476 34,000  Level Los Angeles Center
09:04PM 36.6853 -117.1325 294° West 416 479 34,000  Level Los Angeles Center
09:05PM 36.7433 -117.2936 294° West 423 487 34,000  Level Los Angeles Center
09:06PM 36.7933 -117.4361 294° West 426 490 34,000  Level Los Angeles Center
09:07PM 36.8508 -117.6008 294° West 429 494 34,000  Level Los Angeles Center
09:09PM 36.9167 -117.7936 293° West 430 495 34,000  Level Oakland Center
09:10PM 36.9642 -117.9306 294° West 428 493 34,000  Level Oakland Center
09:11PM 37.0111 -118.0672 293° West 427 491 34,000  Level Oakland Center
09:12PM 37.0506 -118.1775 294° West 428 493 34,000  Level Los Angeles Center
09:13PM 37.0875 -118.2881 293° West 429 494 34,000  Level Los Angeles Center
09:14PM 37.1453 -118.4522 294° West 430 495 34,000  Level Los Angeles Center
09:15PM 37.1981 -118.6208 291° West 421 484 34,000  Level Oakland Center
09:16PM 37.2442 -118.7575 293° West 425 489 34,000  Level Oakland Center
09:17PM 37.2903 -118.8969 293° West 434 499 34,000  Level Oakland Center
09:18PM 37.3358 -119.0339 293° West 431 496 34,000  Level Oakland Center
09:19PM 37.3825 -119.1728 293° West 434 499 34,000  Level Oakland Center
09:20PM 37.4278 -119.3119 292° West 433 498 34,000  Level Oakland Center
09:21PM 37.4736 -119.4508 293° West 433 498 34,000  Level Oakland Center
09:22PM 37.5231 -119.6072 292° West 433 498 34,000 -420 Level Oakland Center
09:23PM 37.5703 -119.7483 293° West 436 502 33,200 -900 Descending Oakland Center
09:24PM 37.6158 -119.8914 292° West 440 506 32,200 -960 Descending Oakland Center
09:25PM 37.6619 -120.0333 292° West 438 504 31,300 -960 Descending Oakland Center
09:26PM 37.7067 -120.1764 292° West 438 504 30,300 -1,380 Descending Oakland Center
09:27PM 37.7536 -120.3183 293° West 437 503 28,500 -1,800 Descending Oakland Center
09:28PM 37.7978 -120.4614 291° West 436 502 26,700 -1,680 Descending Oakland Center
09:29PM 37.8422 -120.6022 292° West 430 495 25,100 -1,680 Descending Oakland Center
09:30PM 37.8578 -120.7522 278° West 449 517 23,400 -2,460 Descending Oakland Center
09:31PM 37.8461 -120.9275 265° West 419 482 20,100 -2,880 Descending Oakland Center
09:32PM 37.8383 -121.0744 266° West 417 480 17,600 -2,400 Descending Oakland Center
09:33PM 37.8164 -121.2169 259° West 417 480 15,300 -2,220 Descending Oakland Center
09:34PM 37.7714 -121.3456 246° West 408 470 13,100 -2,100 Descending Oakland Center
09:35PM 37.7286 -121.4667 246° West 391 450 11,100 -1,740 Descending Oakland Center
09:36PM 37.6886 -121.5753 245° Southwest 367 422 9,600 -1,500 Descending Oakland Center
09:37PM 37.6544 -121.6736 246° West 335 386 8,100 -1,560 Descending Oakland Center
09:38PM 37.6300 -121.7672 252° West 306 352 6,500 -1,560 Descending Oakland Center
09:40PM 37.6167 -121.8833 262° West 274 315 4,700 -1,380 Descending Northern Cal TRACON
09:41PM 37.6167 -121.9833 270° West 258 297 3,600 -960 Descending Northern Cal TRACON
09:42PM 37.6167 -122.0667 270° West 220 253 2,800 -900 Descending Northern Cal TRACON
09:43PM 37.6333 -122.1167 293° West 195 224 1,900 -960 Descending Northern Cal TRACON
09:44PM 37.6667 -122.1667 310° West 155 178 900 -840 Descending Northern Cal TRACON
09:45PM 37.7000 -122.2000 322° Northwest 135 155 300 -600 Descending Northern Cal TRACON
09:48PM 37.7167 -122.2167 270° West  Level FlightAware Approximate